sensor_id;sensor_type;location;lat;lon;timestamp;pressure;altitude;pressure_sealevel;temperature;humidity
79534;BME280;68982;52.160;6.736;2024-02-26T00:00:57;99732.03;;;3.86;100.00
79534;BME280;68982;52.160;6.736;2024-02-26T00:03:23;99739.72;;;3.81;100.00
79534;BME280;68982;52.160;6.736;2024-02-26T00:05:48;99747.38;;;3.84;100.00
79534;BME280;68982;52.160;6.736;2024-02-26T00:08:13;99747.56;;;3.83;100.00
79534;BME280;68982;52.160;6.736;2024-02-26T00:10:39;99749.56;;;3.81;100.00
79534;BME280;68982;52.160;6.736;2024-02-26T00:13:04;99747.88;;;3.80;100.00
79534;BME280;68982;52.160;6.736;2024-02-26T00:15:30;99742.91;;;3.77;100.00
79534;BME280;68982;52.160;6.736;2024-02-26T00:17:55;99748.06;;;3.78;100.00
79534;BME280;68982;52.160;6.736;2024-02-26T00:20:20;99753.72;;;3.75;100.00
79534;BME280;68982;52.160;6.736;2024-02-26T00:22:46;99756.41;;;3.75;100.00
79534;BME280;68982;52.160;6.736;2024-02-26T00:25:11;99758.91;;;3.68;100.00
79534;BME280;68982;52.160;6.736;2024-02-26T00:27:37;99750.25;;;3.66;100.00
79534;BME280;68982;52.160;6.736;2024-02-26T00:30:04;99752.25;;;3.64;100.00
79534;BME280;68982;52.160;6.736;2024-02-26T00:32:30;99756.28;;;3.60;100.00
79534;BME280;68982;52.160;6.736;2024-02-26T00:34:55;99760.59;;;3.61;100.00
79534;BME280;68982;52.160;6.736;2024-02-26T00:37:20;99750.09;;;3.60;100.00
79534;BME280;68982;52.160;6.736;2024-02-26T00:39:46;99752.28;;;3.56;100.00
79534;BME280;68982;52.160;6.736;2024-02-26T00:42:11;99745.94;;;3.49;100.00
79534;BME280;68982;52.160;6.736;2024-02-26T00:44:37;99748.97;;;3.46;100.00
79534;BME280;68982;52.160;6.736;2024-02-26T00:47:02;99758.28;;;3.50;100.00
79534;BME280;68982;52.160;6.736;2024-02-26T00:49:28;99746.81;;;3.49;100.00
79534;BME280;68982;52.160;6.736;2024-02-26T00:51:53;99750.66;;;3.47;100.00
79534;BME280;68982;52.160;6.736;2024-02-26T00:54:18;99743.13;;;3.42;100.00
79534;BME280;68982;52.160;6.736;2024-02-26T00:56:43;99746.66;;;3.43;100.00
79534;BME280;68982;52.160;6.736;2024-02-26T00:59:09;99744.97;;;3.42;100.00
79534;BME280;68982;52.160;6.736;2024-02-26T01:01:34;99736.81;;;3.43;100.00
79534;BME280;68982;52.160;6.736;2024-02-26T01:04:00;99742.66;;;3.39;100.00
79534;BME280;68982;52.160;6.736;2024-02-26T01:06:25;99742.81;;;3.37;100.00
79534;BME280;68982;52.160;6.736;2024-02-26T01:08:51;99741.69;;;3.31;100.00
79534;BME280;68982;52.160;6.736;2024-02-26T01:11:16;99748.00;;;3.39;100.00
79534;BME280;68982;52.160;6.736;2024-02-26T01:13:41;99744.81;;;3.35;100.00
79534;BME280;68982;52.160;6.736;2024-02-26T01:16:06;99739.50;;;3.35;100.00
79534;BME280;68982;52.160;6.736;2024-02-26T01:18:32;99741.31;;;3.35;100.00
79534;BME280;68982;52.160;6.736;2024-02-26T01:20:57;99740.31;;;3.36;100.00
79534;BME280;68982;52.160;6.736;2024-02-26T01:23:22;99739.50;;;3.35;100.00
79534;BME280;68982;52.160;6.736;2024-02-26T01:25:48;99741.16;;;3.36;100.00
79534;BME280;68982;52.160;6.736;2024-02-26T01:28:14;99742.66;;;3.39;100.00
79534;BME280;68982;52.160;6.736;2024-02-26T01:30:39;99744.00;;;3.35;100.00
79534;BME280;68982;52.160;6.736;2024-02-26T01:33:04;99737.00;;;3.34;100.00
79534;BME280;68982;52.160;6.736;2024-02-26T01:35:30;99738.66;;;3.35;100.00
79534;BME280;68982;52.160;6.736;2024-02-26T01:37:55;99723.03;;;3.31;100.00
79534;BME280;68982;52.160;6.736;2024-02-26T01:40:21;99715.69;;;3.34;100.00
79534;BME280;68982;52.160;6.736;2024-02-26T01:42:47;99726.34;;;3.34;100.00
79534;BME280;68982;52.160;6.736;2024-02-26T01:45:16;99738.00;;;3.32;100.00
79534;BME280;68982;52.160;6.736;2024-02-26T01:47:50;99740.50;;;3.34;100.00
79534;BME280;68982;52.160;6.736;2024-02-26T01:50:16;99735.84;;;3.36;100.00
79534;BME280;68982;52.160;6.736;2024-02-26T01:52:42;99738.31;;;3.38;100.00
79534;BME280;68982;52.160;6.736;2024-02-26T01:55:07;99728.31;;;3.40;100.00
79534;BME280;68982;52.160;6.736;2024-02-26T01:57:33;99727.50;;;3.39;100.00
79534;BME280;68982;52.160;6.736;2024-02-26T01:59:59;99733.50;;;3.33;100.00
79534;BME280;68982;52.160;6.736;2024-02-26T02:02:24;99740.31;;;3.36;100.00
79534;BME280;68982;52.160;6.736;2024-02-26T02:04:50;99744.81;;;3.35;100.00
79534;BME280;68982;52.160;6.736;2024-02-26T02:07:16;99747.16;;;3.38;100.00
79534;BME280;68982;52.160;6.736;2024-02-26T02:09:42;99734.50;;;3.32;100.00
79534;BME280;68982;52.160;6.736;2024-02-26T02:12:08;99751.47;;;3.39;100.00
79534;BME280;68982;52.160;6.736;2024-02-26T02:14:33;99746.00;;;3.41;100.00
79534;BME280;68982;52.160;6.736;2024-02-26T02:16:58;99750.81;;;3.37;100.00
79534;BME280;68982;52.160;6.736;2024-02-26T02:19:24;99746.31;;;3.38;100.00
79534;BME280;68982;52.160;6.736;2024-02-26T02:21:49;99759.13;;;3.42;100.00
79534;BME280;68982;52.160;6.736;2024-02-26T02:24:14;99763.31;;;3.45;100.00
79534;BME280;68982;52.160;6.736;2024-02-26T02:26:40;99768.13;;;3.41;100.00
79534;BME280;68982;52.160;6.736;2024-02-26T02:29:06;99773.31;;;3.43;100.00
79534;BME280;68982;52.160;6.736;2024-02-26T02:31:32;99770.63;;;3.43;100.00
79534;BME280;68982;52.160;6.736;2024-02-26T02:33:58;99780.94;;;3.46;100.00
79534;BME280;68982;52.160;6.736;2024-02-26T02:36:23;99779.78;;;3.48;100.00
79534;BME280;68982;52.160;6.736;2024-02-26T02:38:49;99785.09;;;3.48;100.00
79534;BME280;68982;52.160;6.736;2024-02-26T02:41:15;99796.28;;;3.52;100.00
79534;BME280;68982;52.160;6.736;2024-02-26T02:43:41;99792.13;;;3.49;100.00
79534;BME280;68982;52.160;6.736;2024-02-26T02:46:06;99782.28;;;3.50;100.00
79534;BME280;68982;52.160;6.736;2024-02-26T02:48:32;99782.63;;;3.47;100.00
79534;BME280;68982;52.160;6.736;2024-02-26T02:50:57;99790.78;;;3.53;100.00
79534;BME280;68982;52.160;6.736;2024-02-26T02:53:22;99788.44;;;3.50;100.00
79534;BME280;68982;52.160;6.736;2024-02-26T02:55:48;99789.78;;;3.55;100.00
79534;BME280;68982;52.160;6.736;2024-02-26T02:58:13;99797.94;;;3.53;100.00
79534;BME280;68982;52.160;6.736;2024-02-26T03:00:38;99797.78;;;3.55;100.00
79534;BME280;68982;52.160;6.736;2024-02-26T03:03:04;99800.28;;;3.48;100.00
79534;BME280;68982;52.160;6.736;2024-02-26T03:05:29;99802.59;;;3.51;100.00
79534;BME280;68982;52.160;6.736;2024-02-26T03:07:54;99804.28;;;3.52;100.00
79534;BME280;68982;52.160;6.736;2024-02-26T03:10:20;99803.25;;;3.53;100.00
79534;BME280;68982;52.160;6.736;2024-02-26T03:12:45;99805.94;;;3.53;100.00
79534;BME280;68982;52.160;6.736;2024-02-26T03:15:11;99803.59;;;3.50;100.00
79534;BME280;68982;52.160;6.736;2024-02-26T03:17:36;99806.94;;;3.52;100.00
79534;BME280;68982;52.160;6.736;2024-02-26T03:20:02;99806.44;;;3.48;100.00
79534;BME280;68982;52.160;6.736;2024-02-26T03:22:30;99803.44;;;3.51;100.00
79534;BME280;68982;52.160;6.736;2024-02-26T03:24:57;99800.13;;;3.49;100.00
79534;BME280;68982;52.160;6.736;2024-02-26T03:27:22;99800.13;;;3.49;100.00
79534;BME280;68982;52.160;6.736;2024-02-26T03:29:48;99808.13;;;3.49;100.00
79534;BME280;68982;52.160;6.736;2024-02-26T03:32:14;99806.78;;;3.45;100.00
79534;BME280;68982;52.160;6.736;2024-02-26T03:34:39;99811.59;;;3.50;100.00
79534;BME280;68982;52.160;6.736;2024-02-26T03:37:05;99801.59;;;3.44;100.00
79534;BME280;68982;52.160;6.736;2024-02-26T03:39:31;99810.09;;;3.47;100.00
79534;BME280;68982;52.160;6.736;2024-02-26T03:41:57;99808.94;;;3.50;100.00
79534;BME280;68982;52.160;6.736;2024-02-26T03:44:22;99811.59;;;3.42;100.00
79534;BME280;68982;52.160;6.736;2024-02-26T03:46:47;99807.44;;;3.39;100.00
79534;BME280;68982;52.160;6.736;2024-02-26T03:49:13;99811.44;;;3.43;100.00
79534;BME280;68982;52.160;6.736;2024-02-26T03:51:38;99811.44;;;3.43;100.00
79534;BME280;68982;52.160;6.736;2024-02-26T03:54:04;99813.94;;;3.45;100.00
79534;BME280;68982;52.160;6.736;2024-02-26T03:56:29;99817.59;;;3.44;100.00
79534;BME280;68982;52.160;6.736;2024-02-26T03:58:54;99821.59;;;3.48;100.00
79534;BME280;68982;52.160;6.736;2024-02-26T04:01:20;99816.59;;;3.53;100.00
79534;BME280;68982;52.160;6.736;2024-02-26T04:03:45;99816.59;;;3.53;100.00
79534;BME280;68982;52.160;6.736;2024-02-26T04:06:11;99823.25;;;3.57;100.00
79534;BME280;68982;52.160;6.736;2024-02-26T04:08:37;99825.75;;;3.59;100.00
79534;BME280;68982;52.160;6.736;2024-02-26T04:11:03;99834.41;;;3.61;100.00
79534;BME280;68982;52.160;6.736;2024-02-26T04:13:35;99837.09;;;3.61;100.00
79534;BME280;68982;52.160;6.736;2024-02-26T04:16:00;99839.56;;;3.62;100.00
79534;BME280;68982;52.160;6.736;2024-02-26T04:18:29;99832.44;;;3.63;100.00
79534;BME280;68982;52.160;6.736;2024-02-26T04:20:54;99835.91;;;3.63;100.00
79534;BME280;68982;52.160;6.736;2024-02-26T04:23:19;99841.09;;;3.65;100.00
79534;BME280;68982;52.160;6.736;2024-02-26T04:25:45;99841.09;;;3.65;100.00
79534;BME280;68982;52.160;6.736;2024-02-26T04:28:10;99841.41;;;3.62;100.00
79534;BME280;68982;52.160;6.736;2024-02-26T04:30:36;99841.09;;;3.65;100.00
79534;BME280;68982;52.160;6.736;2024-02-26T04:33:01;99844.91;;;3.62;100.00
79534;BME280;68982;52.160;6.736;2024-02-26T04:35:27;99847.56;;;3.62;100.00
79534;BME280;68982;52.160;6.736;2024-02-26T04:37:52;99854.41;;;3.65;100.00
79534;BME280;68982;52.160;6.736;2024-02-26T04:40:18;99859.91;;;3.71;100.00
79534;BME280;68982;52.160;6.736;2024-02-26T04:42:43;99859.56;;;3.66;100.00
79534;BME280;68982;52.160;6.736;2024-02-26T04:45:08;99869.91;;;3.69;100.00
79534;BME280;68982;52.160;6.736;2024-02-26T04:47:34;99858.91;;;3.72;100.00
79534;BME280;68982;52.160;6.736;2024-02-26T04:49:59;99865.25;;;3.71;100.00
79534;BME280;68982;52.160;6.736;2024-02-26T04:52:25;99861.72;;;3.71;100.00
79534;BME280;68982;52.160;6.736;2024-02-26T04:54:50;99867.06;;;3.71;100.00
79534;BME280;68982;52.160;6.736;2024-02-26T04:57:15;99858.22;;;3.70;100.00
79534;BME280;68982;52.160;6.736;2024-02-26T04:59:43;99862.75;;;3.70;100.00
79534;BME280;68982;52.160;6.736;2024-02-26T05:02:09;99853.72;;;3.71;100.00
79534;BME280;68982;52.160;6.736;2024-02-26T05:04:34;99871.25;;;3.73;100.00
79534;BME280;68982;52.160;6.736;2024-02-26T05:07:00;99870.38;;;3.73;100.00
79534;BME280;68982;52.160;6.736;2024-02-26T05:09:25;99869.88;;;3.78;100.00
79534;BME280;68982;52.160;6.736;2024-02-26T05:11:50;99875.22;;;3.78;100.00
79534;BME280;68982;52.160;6.736;2024-02-26T05:14:16;99882.22;;;3.79;100.00
79534;BME280;68982;52.160;6.736;2024-02-26T05:16:41;99880.91;;;3.83;100.00
79534;BME280;68982;52.160;6.736;2024-02-26T05:19:06;99887.41;;;3.80;100.00
79534;BME280;68982;52.160;6.736;2024-02-26T05:21:31;99886.22;;;3.83;100.00
79534;BME280;68982;52.160;6.736;2024-02-26T05:23:57;99877.22;;;3.84;100.00
79534;BME280;68982;52.160;6.736;2024-02-26T05:26:23;99886.19;;;3.91;100.00
79534;BME280;68982;52.160;6.736;2024-02-26T05:28:48;99883.88;;;3.88;100.00
79534;BME280;68982;52.160;6.736;2024-02-26T05:31:14;99887.06;;;3.83;100.00
79534;BME280;68982;52.160;6.736;2024-02-26T05:33:40;99885.38;;;3.82;100.00
79534;BME280;68982;52.160;6.736;2024-02-26T05:36:06;99894.56;;;3.80;100.00
79534;BME280;68982;52.160;6.736;2024-02-26T05:38:31;99893.56;;;3.81;100.00
79534;BME280;68982;52.160;6.736;2024-02-26T05:40:57;99884.75;;;3.80;100.00
79534;BME280;68982;52.160;6.736;2024-02-26T05:43:24;99891.56;;;3.83;100.00
79534;BME280;68982;52.160;6.736;2024-02-26T05:45:50;99896.91;;;3.83;100.00
79534;BME280;68982;52.160;6.736;2024-02-26T05:48:15;99900.22;;;3.77;100.00
79534;BME280;68982;52.160;6.736;2024-02-26T05:50:40;99904.38;;;3.79;100.00
79534;BME280;68982;52.160;6.736;2024-02-26T05:53:06;99909.56;;;3.72;100.00
79534;BME280;68982;52.160;6.736;2024-02-26T05:55:31;99912.91;;;3.74;100.00
79534;BME280;68982;52.160;6.736;2024-02-26T05:57:56;99908.22;;;3.77;100.00
79534;BME280;68982;52.160;6.736;2024-02-26T06:00:21;99909.22;;;3.76;100.00
79534;BME280;68982;52.160;6.736;2024-02-26T06:02:47;99918.06;;;3.76;100.00
79534;BME280;68982;52.160;6.736;2024-02-26T06:05:12;99920.91;;;3.74;100.00
79534;BME280;68982;52.160;6.736;2024-02-26T06:07:37;99926.06;;;3.76;100.00
79534;BME280;68982;52.160;6.736;2024-02-26T06:10:03;99925.06;;;3.77;100.00
79534;BME280;68982;52.160;6.736;2024-02-26T06:12:30;99925.88;;;3.78;100.00
79534;BME280;68982;52.160;6.736;2024-02-26T06:14:56;99924.22;;;3.77;100.00
79534;BME280;68982;52.160;6.736;2024-02-26T06:17:21;99915.41;;;3.76;100.00
79534;BME280;68982;52.160;6.736;2024-02-26T06:19:47;99924.91;;;3.79;100.00
79534;BME280;68982;52.160;6.736;2024-02-26T06:22:12;99923.56;;;3.74;100.00
79534;BME280;68982;52.160;6.736;2024-02-26T06:24:37;99924.91;;;3.79;100.00
79534;BME280;68982;52.160;6.736;2024-02-26T06:27:03;99927.88;;;3.84;100.00
79534;BME280;68982;52.160;6.736;2024-02-26T06:29:28;99942.25;;;3.83;100.00
79534;BME280;68982;52.160;6.736;2024-02-26T06:31:54;99939.56;;;3.83;100.00
79534;BME280;68982;52.160;6.736;2024-02-26T06:34:19;99941.91;;;3.86;100.00
79534;BME280;68982;52.160;6.736;2024-02-26T06:36:44;99942.06;;;3.84;100.00
79534;BME280;68982;52.160;6.736;2024-02-26T06:39:10;99942.56;;;3.88;100.00
79534;BME280;68982;52.160;6.736;2024-02-26T06:41:36;99935.75;;;3.93;100.00
79534;BME280;68982;52.160;6.736;2024-02-26T06:44:01;99941.38;;;3.90;100.00
79534;BME280;68982;52.160;6.736;2024-02-26T06:46:27;99955.03;;;3.95;100.00
79534;BME280;68982;52.160;6.736;2024-02-26T06:48:55;99945.91;;;3.90;100.00
79534;BME280;68982;52.160;6.736;2024-02-26T06:51:21;99952.72;;;3.92;100.00
79534;BME280;68982;52.160;6.736;2024-02-26T06:53:46;99956.22;;;3.93;100.00
79534;BME280;68982;52.160;6.736;2024-02-26T06:56:11;99955.25;;;3.94;100.00
79534;BME280;68982;52.160;6.736;2024-02-26T06:58:37;99951.25;;;3.98;100.00
79534;BME280;68982;52.160;6.736;2024-02-26T07:01:02;99956.06;;;3.94;100.00
79534;BME280;68982;52.160;6.736;2024-02-26T07:03:27;99955.91;;;3.96;100.00
79534;BME280;68982;52.160;6.736;2024-02-26T07:05:54;99957.41;;;3.99;100.00
79534;BME280;68982;52.160;6.736;2024-02-26T07:08:19;99959.41;;;3.97;100.00
79534;BME280;68982;52.160;6.736;2024-02-26T07:10:46;99958.22;;;3.99;100.00
79534;BME280;68982;52.160;6.736;2024-02-26T07:13:11;99957.56;;;3.97;100.00
79534;BME280;68982;52.160;6.736;2024-02-26T07:15:36;99960.91;;;3.99;100.00
79534;BME280;68982;52.160;6.736;2024-02-26T07:18:01;99965.72;;;4.04;100.00
79534;BME280;68982;52.160;6.736;2024-02-26T07:20:30;99969.22;;;4.04;100.00
79534;BME280;68982;52.160;6.736;2024-02-26T07:22:56;99974.06;;;4.09;100.00
79534;BME280;68982;52.160;6.736;2024-02-26T07:25:21;99974.06;;;4.09;100.00
79534;BME280;68982;52.160;6.736;2024-02-26T07:27:47;99971.72;;;4.06;100.00
79534;BME280;68982;52.160;6.736;2024-02-26T07:30:12;99972.56;;;4.06;100.00
79534;BME280;68982;52.160;6.736;2024-02-26T07:32:38;99974.41;;;4.06;100.00
79534;BME280;68982;52.160;6.736;2024-02-26T07:35:04;99975.22;;;4.06;100.00
79534;BME280;68982;52.160;6.736;2024-02-26T07:37:30;99982.91;;;4.09;100.00
79534;BME280;68982;52.160;6.736;2024-02-26T07:39:55;99979.91;;;4.12;100.00
79534;BME280;68982;52.160;6.736;2024-02-26T07:42:20;99977.56;;;4.09;100.00
79534;BME280;68982;52.160;6.736;2024-02-26T07:44:46;99982.25;;;4.07;100.00
79534;BME280;68982;52.160;6.736;2024-02-26T07:47:13;99979.91;;;4.12;100.00
79534;BME280;68982;52.160;6.736;2024-02-26T07:49:39;99978.88;;;4.13;100.00
79534;BME280;68982;52.160;6.736;2024-02-26T07:52:05;99979.06;;;4.12;100.00
79534;BME280;68982;52.160;6.736;2024-02-26T07:54:30;99990.25;;;4.07;100.00
79534;BME280;68982;52.160;6.736;2024-02-26T07:56:58;99986.56;;;4.08;100.00
79534;BME280;68982;52.160;6.736;2024-02-26T07:59:23;99995.75;;;4.14;100.00
79534;BME280;68982;52.160;6.736;2024-02-26T08:01:52;99991.59;;;4.11;100.00
79534;BME280;68982;52.160;6.736;2024-02-26T08:04:17;99989.41;;;4.15;100.00
79534;BME280;68982;52.160;6.736;2024-02-26T08:06:42;100000.75;;;4.17;100.00
79534;BME280;68982;52.160;6.736;2024-02-26T08:09:08;99998.72;;;4.11;100.00
79534;BME280;68982;52.160;6.736;2024-02-26T08:11:33;100007.09;;;4.16;100.00
79534;BME280;68982;52.160;6.736;2024-02-26T08:13:59;100016.75;;;4.17;100.00
79534;BME280;68982;52.160;6.736;2024-02-26T08:16:24;100019.75;;;4.22;100.00
79534;BME280;68982;52.160;6.736;2024-02-26T08:18:50;100020.44;;;4.16;100.00
79534;BME280;68982;52.160;6.736;2024-02-26T08:21:15;100017.09;;;4.14;100.00
79534;BME280;68982;52.160;6.736;2024-02-26T08:23:43;100012.06;;;4.11;100.00
79534;BME280;68982;52.160;6.736;2024-02-26T08:26:08;100011.41;;;4.09;100.00
79534;BME280;68982;52.160;6.736;2024-02-26T08:28:38;100001.75;;;4.08;100.00
79534;BME280;68982;52.160;6.736;2024-02-26T08:31:03;100013.56;;;4.13;100.00
79534;BME280;68982;52.160;6.736;2024-02-26T08:33:30;100012.94;;;4.11;100.00
79534;BME280;68982;52.160;6.736;2024-02-26T08:35:55;100026.75;;;4.15;100.00
79534;BME280;68982;52.160;6.736;2024-02-26T08:38:21;100029.75;;;4.12;100.00
79534;BME280;68982;52.160;6.736;2024-02-26T08:40:48;100031.91;;;4.08;100.00
79534;BME280;68982;52.160;6.736;2024-02-26T08:43:13;100039.44;;;4.13;100.00
79534;BME280;68982;52.160;6.736;2024-02-26T08:45:38;100034.44;;;4.10;100.00
79534;BME280;68982;52.160;6.736;2024-02-26T08:48:04;100041.09;;;4.14;100.00
79534;BME280;68982;52.160;6.736;2024-02-26T08:50:29;100037.44;;;4.15;100.00
79534;BME280;68982;52.160;6.736;2024-02-26T08:52:54;100040.91;;;4.15;100.00
79534;BME280;68982;52.160;6.736;2024-02-26T08:55:20;100039.94;;;4.17;100.00
79534;BME280;68982;52.160;6.736;2024-02-26T08:57:45;100055.78;;;4.18;100.00
79534;BME280;68982;52.160;6.736;2024-02-26T09:00:11;100061.94;;;4.19;100.00
79534;BME280;68982;52.160;6.736;2024-02-26T09:02:37;100061.44;;;4.23;100.00
79534;BME280;68982;52.160;6.736;2024-02-26T09:05:07;100061.94;;;4.19;100.00
79534;BME280;68982;52.160;6.736;2024-02-26T09:07:33;100071.31;;;4.23;100.00
79534;BME280;68982;52.160;6.736;2024-02-26T09:09:58;100063.28;;;4.23;100.00
79534;BME280;68982;52.160;6.736;2024-02-26T09:12:24;100067.78;;;4.22;100.00
79534;BME280;68982;52.160;6.736;2024-02-26T09:14:49;100072.94;;;4.15;100.00
79534;BME280;68982;52.160;6.736;2024-02-26T09:17:15;100071.28;;;4.14;100.00
79534;BME280;68982;52.160;6.736;2024-02-26T09:19:40;100069.59;;;4.13;100.00
79534;BME280;68982;52.160;6.736;2024-02-26T09:22:07;100072.44;;;4.12;100.00
79534;BME280;68982;52.160;6.736;2024-02-26T09:24:32;100073.94;;;4.14;100.00
79534;BME280;68982;52.160;6.736;2024-02-26T09:26:58;100091.47;;;4.17;100.00
79534;BME280;68982;52.160;6.736;2024-02-26T09:29:24;100089.63;;;4.18;100.00
79534;BME280;68982;52.160;6.736;2024-02-26T09:31:51;100094.81;;;4.19;100.00
79534;BME280;68982;52.160;6.736;2024-02-26T09:34:16;100091.97;;;4.21;100.00
79534;BME280;68982;52.160;6.736;2024-02-26T09:36:43;100098.47;;;4.18;100.00
79534;BME280;68982;52.160;6.736;2024-02-26T09:39:08;100100.31;;;4.26;100.00
79534;BME280;68982;52.160;6.736;2024-02-26T09:41:36;100101.31;;;4.25;100.00
79534;BME280;68982;52.160;6.736;2024-02-26T09:44:02;100100.66;;;4.23;100.00
79534;BME280;68982;52.160;6.736;2024-02-26T09:46:30;100107.66;;;4.24;100.00
79534;BME280;68982;52.160;6.736;2024-02-26T09:48:56;100115.16;;;4.28;100.00
79534;BME280;68982;52.160;6.736;2024-02-26T09:51:24;100123.16;;;4.28;100.00
79534;BME280;68982;52.160;6.736;2024-02-26T09:53:54;100114.66;;;4.25;100.00
79534;BME280;68982;52.160;6.736;2024-02-26T09:56:20;100122.69;;;4.25;100.00
79534;BME280;68982;52.160;6.736;2024-02-26T09:58:46;100123.50;;;4.25;100.00
79534;BME280;68982;52.160;6.736;2024-02-26T10:01:17;100133.69;;;4.30;100.00
79534;BME280;68982;52.160;6.736;2024-02-26T10:03:43;100137.69;;;4.34;100.00
79534;BME280;68982;52.160;6.736;2024-02-26T10:06:10;100143.38;;;4.39;100.00
79534;BME280;68982;52.160;6.736;2024-02-26T10:08:36;100141.22;;;4.43;100.00
79534;BME280;68982;52.160;6.736;2024-02-26T10:11:03;100149.22;;;4.43;100.00
79534;BME280;68982;52.160;6.736;2024-02-26T10:13:28;100180.75;;;4.47;100.00
79534;BME280;68982;52.160;6.736;2024-02-26T10:15:53;100174.56;;;4.47;100.00
79534;BME280;68982;52.160;6.736;2024-02-26T10:18:19;100179.91;;;4.47;100.00
79534;BME280;68982;52.160;6.736;2024-02-26T10:21:03;100178.06;;;4.55;100.00
79534;BME280;68982;52.160;6.736;2024-02-26T10:23:28;100180.56;;;4.49;100.00
79534;BME280;68982;52.160;6.736;2024-02-26T10:25:54;100181.44;;;4.49;100.00
79534;BME280;68982;52.160;6.736;2024-02-26T10:28:20;100181.75;;;4.46;100.00
79534;BME280;68982;52.160;6.736;2024-02-26T10:30:46;100178.91;;;4.48;100.00
79534;BME280;68982;52.160;6.736;2024-02-26T10:33:12;100188.56;;;4.49;100.00
79534;BME280;68982;52.160;6.736;2024-02-26T10:35:38;100187.59;;;4.50;100.00
79534;BME280;68982;52.160;6.736;2024-02-26T10:38:06;100189.25;;;4.51;100.00
79534;BME280;68982;52.160;6.736;2024-02-26T10:40:32;100196.59;;;4.57;100.00
79534;BME280;68982;52.160;6.736;2024-02-26T10:42:58;100196.28;;;4.52;100.00
79534;BME280;68982;52.160;6.736;2024-02-26T10:45:23;100195.78;;;4.56;100.00
79534;BME280;68982;52.160;6.736;2024-02-26T10:47:48;100207.78;;;4.52;100.00
79534;BME280;68982;52.160;6.736;2024-02-26T10:50:14;100215.47;;;4.47;100.00
79534;BME280;68982;52.160;6.736;2024-02-26T10:52:42;100218.81;;;4.49;100.00
79534;BME280;68982;52.160;6.736;2024-02-26T10:55:08;100219.28;;;4.53;100.00
79534;BME280;68982;52.160;6.736;2024-02-26T10:57:40;100225.13;;;4.48;100.00
79534;BME280;68982;52.160;6.736;2024-02-26T11:00:07;100222.78;;;4.53;100.00
79534;BME280;68982;52.160;6.736;2024-02-26T11:02:36;100228.50;;;4.59;100.00
79534;BME280;68982;52.160;6.736;2024-02-26T11:05:03;100231.81;;;4.52;100.00
79534;BME280;68982;52.160;6.736;2024-02-26T11:07:32;100232.16;;;4.49;100.00
79534;BME280;68982;52.160;6.736;2024-02-26T11:10:02;100236.81;;;4.47;100.00
79534;BME280;68982;52.160;6.736;2024-02-26T11:12:29;100235.13;;;4.46;100.00
79534;BME280;68982;52.160;6.736;2024-02-26T11:14:55;100238.47;;;4.48;100.00
79534;BME280;68982;52.160;6.736;2024-02-26T11:17:23;100235.47;;;4.43;100.00
79534;BME280;68982;52.160;6.736;2024-02-26T11:19:53;100236.16;;;4.45;100.00
79534;BME280;68982;52.160;6.736;2024-02-26T11:22:20;100243.00;;;4.48;100.00
79534;BME280;68982;52.160;6.736;2024-02-26T11:24:47;100233.47;;;4.45;100.00
79534;BME280;68982;52.160;6.736;2024-02-26T11:27:15;100245.16;;;4.52;100.00
79534;BME280;68982;52.160;6.736;2024-02-26T11:29:46;100245.50;;;4.49;100.00
79534;BME280;68982;52.160;6.736;2024-02-26T11:32:12;100241.66;;;4.52;100.00
79534;BME280;68982;52.160;6.736;2024-02-26T11:34:40;100245.00;;;4.54;100.00
79534;BME280;68982;52.160;6.736;2024-02-26T11:37:13;100247.19;;;4.59;100.00
79534;BME280;68982;52.160;6.736;2024-02-26T11:39:42;100247.00;;;4.60;100.00
79534;BME280;68982;52.160;6.736;2024-02-26T11:42:08;100234.00;;;4.57;100.00
79534;BME280;68982;52.160;6.736;2024-02-26T11:44:34;100245.88;;;4.63;100.00
79534;BME280;68982;52.160;6.736;2024-02-26T11:47:34;100235.84;;;4.56;100.00
79534;BME280;68982;52.160;6.736;2024-02-26T11:50:53;100239.34;;;4.65;100.00
79534;BME280;68982;52.160;6.736;2024-02-26T11:56:13;100257.88;;;4.67;100.00
79534;BME280;68982;52.160;6.736;2024-02-26T11:58:41;100251.88;;;4.65;100.00
79534;BME280;68982;52.160;6.736;2024-02-26T12:01:35;100258.72;;;4.67;100.00
79534;BME280;68982;52.160;6.736;2024-02-26T12:04:01;100263.41;;;4.65;100.00
79534;BME280;68982;52.160;6.736;2024-02-26T12:06:27;100272.91;;;4.68;100.00
79534;BME280;68982;52.160;6.736;2024-02-26T12:08:54;100267.72;;;4.66;100.00
79534;BME280;68982;52.160;6.736;2024-02-26T12:11:20;100277.75;;;4.72;100.00
79534;BME280;68982;52.160;6.736;2024-02-26T12:13:47;100265.72;;;4.68;100.00
79534;BME280;68982;52.160;6.736;2024-02-26T12:16:37;100282.91;;;4.66;100.00
79534;BME280;68982;52.160;6.736;2024-02-26T12:19:07;100285.59;;;4.66;100.00
79534;BME280;68982;52.160;6.736;2024-02-26T12:21:37;100289.44;;;4.63;100.00
79534;BME280;68982;52.160;6.736;2024-02-26T12:24:15;100289.09;;;4.66;100.00
79534;BME280;68982;52.160;6.736;2024-02-26T12:26:41;100288.91;;;4.60;100.00
79534;BME280;68982;52.160;6.736;2024-02-26T12:29:07;100279.22;;;4.59;100.00
79534;BME280;68982;52.160;6.736;2024-02-26T12:31:33;100288.06;;;4.59;100.00
79534;BME280;68982;52.160;6.736;2024-02-26T12:34:00;100290.94;;;4.66;100.00
79534;BME280;68982;52.160;6.736;2024-02-26T12:36:26;100299.75;;;4.66;100.00
79534;BME280;68982;52.160;6.736;2024-02-26T12:38:51;100297.94;;;4.67;100.00
79534;BME280;68982;52.160;6.736;2024-02-26T12:41:17;100310.63;;;4.65;100.00
79534;BME280;68982;52.160;6.736;2024-02-26T12:43:42;100314.81;;;4.67;100.00
79534;BME280;68982;52.160;6.736;2024-02-26T12:46:08;100312.44;;;4.64;100.00
79534;BME280;68982;52.160;6.736;2024-02-26T12:48:33;100313.94;;;4.67;100.00
79534;BME280;68982;52.160;6.736;2024-02-26T12:50:59;100304.63;;;4.63;100.00
79534;BME280;68982;52.160;6.736;2024-02-26T12:53:26;100315.78;;;4.66;100.00
79534;BME280;68982;52.160;6.736;2024-02-26T12:55:55;100320.16;;;4.75;100.00